Time;durP1;ratioP1;P1;durP2;ratioP2;P2;SDS_P1;SDS_P2;PMS_P1;PMS_P2;Temp;Humidity;BMP_temperature;BMP_pressure;BME280_temperature;BME280_humidity;BME280_pressure;Samples;Min_cycle;Max_cycle;Signal;HPM_P1;HPM_P2
2022/01/22 00:00:16;;;;;;;5.03;1.88;;;;;;;;;;7387632;19;20002;-76
2022/01/22 00:02:42;;;;;;;3.63;1.50;;;;;;;;;;7385855;19;20038;-77
2022/01/22 00:05:09;;;;;;;1.65;1.13;;;;;;;;;;7388065;19;20134;-77
2022/01/22 00:07:35;;;;;;;2.70;1.23;;;;;;;;;;7387684;19;20438;-76
2022/01/22 00:10:06;;;;;;;3.63;1.63;;;;;;;;;;7386480;19;20002;-77
2022/01/22 00:15:09;;;;;;;2.30;1.20;;;;;;;;;;7385523;19;20010;-75
2022/01/22 00:17:35;;;;;;;6.72;1.63;;;;;;;;;;7385811;19;20037;-77
2022/01/22 00:20:00;;;;;;;1.90;1.30;;;;;;;;;;7388152;19;20350;-77
2022/01/22 00:22:29;;;;;;;5.45;1.65;;;;;;;;;;7385812;19;20069;-76
2022/01/22 00:24:58;;;;;;;5.25;1.77;;;;;;;;;;7389626;19;20067;-77
2022/01/22 00:27:24;;;;;;;5.18;1.50;;;;;;;;;;7386572;19;20058;-76
2022/01/22 00:29:50;;;;;;;3.25;1.30;;;;;;;;;;7386814;19;20010;-77
2022/01/22 00:32:15;;;;;;;5.32;1.60;;;;;;;;;;7385845;19;20003;-76
2022/01/22 00:34:40;;;;;;;4.28;1.58;;;;;;;;;;7387621;19;20465;-75
2022/01/22 00:37:06;;;;;;;4.57;1.65;;;;;;;;;;7383073;19;20018;-76
2022/01/22 00:39:33;;;;;;;1.55;1.15;;;;;;;;;;7384847;19;20013;-77
2022/01/22 00:41:58;;;;;;;5.18;1.30;;;;;;;;;;7383993;19;19995;-77
2022/01/22 00:44:25;;;;;;;1.63;1.10;;;;;;;;;;7385103;19;20353;-76
2022/01/22 00:46:51;;;;;;;1.92;1.25;;;;;;;;;;7385951;19;20010;-76
2022/01/22 00:49:16;;;;;;;3.95;1.38;;;;;;;;;;7383897;19;20004;-77
2022/01/22 00:51:41;;;;;;;4.18;1.25;;;;;;;;;;7385177;19;20003;-77
2022/01/22 00:54:06;;;;;;;5.38;1.08;;;;;;;;;;7384484;19;19995;-77
2022/01/22 00:56:32;;;;;;;2.40;1.15;;;;;;;;;;7385548;19;20681;-77
2022/01/22 00:58:57;;;;;;;2.65;1.33;;;;;;;;;;7384744;19;19998;-76
2022/01/22 01:01:22;;;;;;;2.53;1.10;;;;;;;;;;7393919;19;20078;-76
2022/01/22 01:03:48;;;;;;;1.85;1.10;;;;;;;;;;7391242;19;20006;-76
2022/01/22 01:06:13;;;;;;;4.43;1.42;;;;;;;;;;7390770;19;20034;-75
2022/01/22 01:08:38;;;;;;;4.80;1.35;;;;;;;;;;7393462;19;20014;-77
2022/01/22 01:11:06;;;;;;;3.38;1.48;;;;;;;;;;7392445;19;20001;-76
2022/01/22 01:13:37;;;;;;;4.57;1.38;;;;;;;;;;7391570;19;20023;-76
2022/01/22 01:16:15;;;;;;;3.30;1.35;;;;;;;;;;7393344;19;20018;-77
2022/01/22 01:32:27;;;;;;;2.95;1.33;;;;;;;;;;7393649;19;20030;-77
2022/01/22 01:34:52;;;;;;;4.47;1.35;;;;;;;;;;7392819;19;20094;-76
2022/01/22 01:37:19;;;;;;;5.03;1.42;;;;;;;;;;7389715;19;19999;-76
2022/01/22 01:39:48;;;;;;;1.92;1.17;;;;;;;;;;7392810;19;20007;-76
2022/01/22 01:42:18;;;;;;;2.47;1.10;;;;;;;;;;7389547;19;20017;-77
2022/01/22 01:44:44;;;;;;;3.05;1.45;;;;;;;;;;7392489;19;20017;-76
2022/01/22 01:47:12;;;;;;;4.88;1.42;;;;;;;;;;7392434;19;20409;-77
2022/01/22 01:49:37;;;;;;;4.25;1.45;;;;;;;;;;7392155;19;20028;-77
2022/01/22 01:52:06;;;;;;;3.20;1.40;;;;;;;;;;7389626;19;20018;-76
2022/01/22 01:54:47;;;;;;;2.08;0.85;;;;;;;;;;7391757;19;20460;-77
2022/01/22 02:00:21;;;;;;;5.15;1.50;;;;;;;;;;7386828;19;20057;-76
2022/01/22 02:02:48;;;;;;;5.18;1.55;;;;;;;;;;7386238;19;20017;-76
2022/01/22 02:05:14;;;;;;;3.35;1.30;;;;;;;;;;7389572;19;20028;-76
2022/01/22 02:07:42;;;;;;;3.28;1.60;;;;;;;;;;7390666;19;20083;-76
2022/01/22 02:10:12;;;;;;;3.38;1.50;;;;;;;;;;7388972;19;20574;-76
2022/01/22 02:23:39;;;;;;;2.92;1.63;;;;;;;;;;7389960;19;20361;-76
2022/01/22 02:26:06;;;;;;;2.72;1.23;;;;;;;;;;7389660;19;20003;-76
2022/01/22 02:28:32;;;;;;;2.50;1.50;;;;;;;;;;7388035;19;20006;-76
2022/01/22 02:31:07;;;;;;;3.88;1.60;;;;;;;;;;7388890;19;20430;-77
2022/01/22 02:36:23;;;;;;;4.55;1.70;;;;;;;;;;7387402;19;20430;-76
2022/01/22 02:41:18;;;;;;;3.30;1.42;;;;;;;;;;7391460;19;20011;-76
2022/01/22 02:43:43;;;;;;;3.63;1.30;;;;;;;;;;7389206;19;20023;-77
2022/01/22 02:46:09;;;;;;;4.68;2.05;;;;;;;;;;7391716;19;19990;-76
2022/01/22 02:48:34;;;;;;;4.35;1.48;;;;;;;;;;7388828;19;20006;-77
2022/01/22 02:51:00;;;;;;;3.22;1.92;;;;;;;;;;7389572;19;20006;-76
2022/01/22 02:53:27;;;;;;;4.18;1.92;;;;;;;;;;7387618;19;20021;-77
2022/01/22 02:55:53;;;;;;;3.63;1.58;;;;;;;;;;7388289;19;20014;-76
2022/01/22 02:58:18;;;;;;;3.05;1.98;;;;;;;;;;7388279;19;20314;-76
2022/01/22 03:00:44;;;;;;;3.00;1.95;;;;;;;;;;7391971;19;20002;-76
2022/01/22 03:03:09;;;;;;;4.13;1.48;;;;;;;;;;7389721;19;19999;-76
2022/01/22 03:05:34;;;;;;;1.25;1.10;;;;;;;;;;7390695;19;20900;-76
2022/01/22 03:08:05;;;;;;;6.93;1.42;;;;;;;;;;7389461;19;20015;-76
2022/01/22 03:10:30;;;;;;;5.10;1.30;;;;;;;;;;7385996;19;20010;-75
2022/01/22 03:15:51;;;;;;;3.55;1.92;;;;;;;;;;7389800;19;20006;-76
2022/01/22 03:18:23;;;;;;;3.47;1.27;;;;;;;;;;7384323;19;20056;-76
2022/01/22 03:28:55;;;;;;;4.18;1.33;;;;;;;;;;7388616;19;20049;-77
2022/01/22 03:31:22;;;;;;;4.53;2.08;;;;;;;;;;7389933;19;20022;-77
2022/01/22 03:33:47;;;;;;;3.42;1.58;;;;;;;;;;7387831;19;20078;-77
2022/01/22 03:36:14;;;;;;;2.20;1.38;;;;;;;;;;7389029;19;20003;-75
2022/01/22 03:38:39;;;;;;;3.25;1.27;;;;;;;;;;7388190;19;20002;-77
2022/01/22 03:41:04;;;;;;;2.65;1.60;;;;;;;;;;7388236;19;20010;-77
2022/01/22 03:43:29;;;;;;;3.63;1.42;;;;;;;;;;7387273;19;20003;-76
2022/01/22 03:45:55;;;;;;;5.70;1.90;;;;;;;;;;7388052;19;20002;-76
2022/01/22 03:48:20;;;;;;;2.88;1.27;;;;;;;;;;7386900;19;20330;-76
2022/01/22 03:50:46;;;;;;;3.72;1.58;;;;;;;;;;7388125;19;20006;-75
2022/01/22 03:53:11;;;;;;;2.90;1.58;;;;;;;;;;7385978;19;20370;-75
2022/01/22 03:58:11;;;;;;;3.58;1.67;;;;;;;;;;7388350;19;20018;-76
2022/01/22 04:00:36;;;;;;;3.83;1.50;;;;;;;;;;7386667;19;20004;-76
2022/01/22 04:03:56;;;;;;;4.93;2.00;;;;;;;;;;7386696;19;20014;-76
2022/01/22 04:08:31;;;;;;;4.03;2.35;;;;;;;;;;7387560;19;20487;-76
2022/01/22 04:10:57;;;;;;;4.93;2.25;;;;;;;;;;7388256;19;20010;-77
2022/01/22 04:13:30;;;;;;;2.90;2.15;;;;;;;;;;7384941;19;20002;-77
2022/01/22 04:15:56;;;;;;;4.22;2.05;;;;;;;;;;7386618;19;20001;-77
2022/01/22 04:26:59;;;;;;;3.25;1.95;;;;;;;;;;7386378;19;20031;-77
2022/01/22 04:29:26;;;;;;;5.25;2.10;;;;;;;;;;7387076;19;20085;-76
2022/01/22 04:31:52;;;;;;;4.15;2.28;;;;;;;;;;7387502;19;20002;-77
2022/01/22 04:34:17;;;;;;;3.90;1.85;;;;;;;;;;7383454;19;20030;-77
2022/01/22 04:36:43;;;;;;;3.78;2.05;;;;;;;;;;7386106;19;20118;-77
2022/01/22 04:39:09;;;;;;;2.53;1.92;;;;;;;;;;7387238;19;20024;-77
2022/01/22 04:41:34;;;;;;;4.45;2.13;;;;;;;;;;7382604;19;19998;-77
2022/01/22 04:44:02;;;;;;;5.25;2.10;;;;;;;;;;7383296;19;20062;-77
2022/01/22 04:49:14;;;;;;;3.95;2.30;;;;;;;;;;7386970;19;20003;-76
2022/01/22 04:57:08;;;;;;;5.05;2.33;;;;;;;;;;7382598;19;20017;-77
2022/01/22 04:59:33;;;;;;;3.95;2.10;;;;;;;;;;7383919;19;20014;-77
2022/01/22 05:01:59;;;;;;;3.40;1.88;;;;;;;;;;7385541;19;20341;-77
2022/01/22 05:04:24;;;;;;;3.55;2.13;;;;;;;;;;7382471;19;20003;-76
2022/01/22 05:06:50;;;;;;;2.53;1.65;;;;;;;;;;7384693;19;20453;-76
2022/01/22 05:09:15;;;;;;;4.32;2.55;;;;;;;;;;7385661;19;20007;-76
2022/01/22 05:11:40;;;;;;;4.85;2.25;;;;;;;;;;7384700;19;20010;-77
2022/01/22 05:14:06;;;;;;;5.45;2.08;;;;;;;;;;7381667;19;20445;-76
2022/01/22 05:16:31;;;;;;;4.95;2.30;;;;;;;;;;7384481;19;20010;-77
2022/01/22 05:19:11;;;;;;;6.00;2.40;;;;;;;;;;7383414;19;20006;-76
2022/01/22 05:21:38;;;;;;;6.03;2.40;;;;;;;;;;7384676;19;20010;-75
2022/01/22 05:24:08;;;;;;;8.13;2.40;;;;;;;;;;7380476;19;20045;-76
2022/01/22 05:37:06;;;;;;;5.35;2.80;;;;;;;;;;7381819;19;20281;-75
2022/01/22 05:39:34;;;;;;;3.88;2.38;;;;;;;;;;7383327;19;20336;-76
2022/01/22 05:42:02;;;;;;;5.75;2.70;;;;;;;;;;7382740;19;20022;-76
2022/01/22 05:44:30;;;;;;;5.13;2.63;;;;;;;;;;7383961;19;20047;-76
2022/01/22 05:46:58;;;;;;;10.35;2.50;;;;;;;;;;7387567;19;20040;-77
2022/01/22 05:49:26;;;;;;;5.38;2.30;;;;;;;;;;7391273;19;20014;-77
2022/01/22 05:51:54;;;;;;;4.07;2.28;;;;;;;;;;7389668;19;20078;-75
2022/01/22 05:59:39;;;;;;;3.27;2.03;;;;;;;;;;7391581;19;20010;-76
2022/01/22 06:02:13;;;;;;;3.40;2.20;;;;;;;;;;7387126;19;20314;-75
2022/01/22 06:04:39;;;;;;;3.70;2.45;;;;;;;;;;7389790;19;20473;-76
2022/01/22 06:07:05;;;;;;;2.75;2.03;;;;;;;;;;7391122;19;20125;-76
2022/01/22 06:09:32;;;;;;;6.40;2.72;;;;;;;;;;7388579;19;20045;-76
2022/01/22 06:12:14;;;;;;;4.55;2.22;;;;;;;;;;7390285;19;20025;-74
2022/01/22 06:14:39;;;;;;;5.38;2.67;;;;;;;;;;7389306;19;20042;-75
2022/01/22 06:17:05;;;;;;;3.90;2.30;;;;;;;;;;7385768;19;20006;-74
2022/01/22 06:19:30;;;;;;;5.05;3.00;;;;;;;;;;7389373;19;20021;-74
2022/01/22 06:21:56;;;;;;;5.43;2.38;;;;;;;;;;7390087;19;20010;-76
2022/01/22 06:24:22;;;;;;;6.53;2.67;;;;;;;;;;7388329;19;20003;-78
2022/01/22 06:26:48;;;;;;;3.75;2.70;;;;;;;;;;7387985;19;20034;-74
2022/01/22 06:29:13;;;;;;;5.47;2.15;;;;;;;;;;7389197;19;20461;-76
2022/01/22 06:31:39;;;;;;;4.35;2.75;;;;;;;;;;7389411;19;20010;-75
2022/01/22 06:34:05;;;;;;;4.82;2.72;;;;;;;;;;7387264;19;20018;-75
2022/01/22 06:36:31;;;;;;;7.20;2.45;;;;;;;;;;7389093;19;20037;-76
2022/01/22 06:39:15;;;;;;;4.88;2.60;;;;;;;;;;7388745;19;20039;-76
2022/01/22 06:41:44;;;;;;;5.60;2.92;;;;;;;;;;7386942;19;20015;-76
2022/01/22 06:44:18;;;;;;;4.15;2.70;;;;;;;;;;7386175;19;20378;-75
2022/01/22 06:46:46;;;;;;;3.65;2.60;;;;;;;;;;7389627;19;20011;-77
2022/01/22 06:49:12;;;;;;;3.67;2.15;;;;;;;;;;7387071;19;20014;-75
2022/01/22 06:51:37;;;;;;;3.53;2.50;;;;;;;;;;7388766;19;20038;-74
2022/01/22 06:54:05;;;;;;;4.50;2.75;;;;;;;;;;7388585;19;20930;-77
2022/01/22 06:56:30;;;;;;;4.50;2.80;;;;;;;;;;7388746;19;20027;-77
2022/01/22 06:58:58;;;;;;;6.85;2.80;;;;;;;;;;7385104;19;20026;-78
2022/01/22 07:01:25;;;;;;;3.30;2.35;;;;;;;;;;7389680;19;20022;-78
2022/01/22 07:03:51;;;;;;;4.65;2.65;;;;;;;;;;7386752;19;19998;-77
2022/01/22 07:06:16;;;;;;;6.07;2.85;;;;;;;;;;7389048;19;20034;-79
2022/01/22 07:08:41;;;;;;;8.75;5.07;;;;;;;;;;7387784;19;20392;-77
2022/01/22 07:11:07;;;;;;;5.57;3.20;;;;;;;;;;7384176;19;20014;-78
2022/01/22 07:13:33;;;;;;;4.97;3.38;;;;;;;;;;7386728;19;20032;-78
2022/01/22 07:15:59;;;;;;;4.88;3.25;;;;;;;;;;7388626;19;20399;-77
2022/01/22 07:18:24;;;;;;;5.57;3.38;;;;;;;;;;7388874;19;20007;-74
2022/01/22 07:20:51;;;;;;;6.28;3.10;;;;;;;;;;7387410;19;20553;-74
2022/01/22 07:23:42;;;;;;;4.70;2.92;;;;;;;;;;7388350;19;20021;-74
2022/01/22 07:26:03;;;;;;;4.45;2.70;;;;;;;;;;7387610;19;20022;-75
2022/01/22 07:28:28;;;;;;;5.05;2.58;;;;;;;;;;7385500;19;20006;-75
2022/01/22 07:30:54;;;;;;;5.15;3.28;;;;;;;;;;7388923;19;20443;-75
2022/01/22 07:33:20;;;;;;;4.65;2.90;;;;;;;;;;7385706;19;20358;-75
2022/01/22 07:35:47;;;;;;;5.53;3.10;;;;;;;;;;7388414;19;20475;-76
2022/01/22 07:38:12;;;;;;;4.75;3.08;;;;;;;;;;7386801;19;20109;-75
2022/01/22 07:40:38;;;;;;;5.50;2.88;;;;;;;;;;7386836;19;20019;-76
2022/01/22 07:43:03;;;;;;;6.97;3.75;;;;;;;;;;7389118;19;20010;-76
2022/01/22 07:45:29;;;;;;;6.32;3.20;;;;;;;;;;7389365;19;20013;-76
2022/01/22 07:47:54;;;;;;;4.45;3.22;;;;;;;;;;7389274;19;20045;-74
2022/01/22 07:50:20;;;;;;;4.88;3.00;;;;;;;;;;7388890;19;20094;-77
2022/01/22 07:52:45;;;;;;;4.13;2.40;;;;;;;;;;7389104;19;20485;-79
2022/01/22 07:55:10;;;;;;;6.75;3.63;;;;;;;;;;7389088;19;20035;-77
2022/01/22 07:57:36;;;;;;;4.43;2.85;;;;;;;;;;7387427;19;20006;-77
2022/01/22 08:00:03;;;;;;;4.60;2.88;;;;;;;;;;7389205;19;20007;-77
2022/01/22 08:02:28;;;;;;;6.55;3.08;;;;;;;;;;7387008;19;20011;-77
2022/01/22 08:04:53;;;;;;;4.68;3.20;;;;;;;;;;7390887;19;20051;-78
2022/01/22 08:07:18;;;;;;;4.53;2.70;;;;;;;;;;7386540;19;20025;-77
2022/01/22 08:09:45;;;;;;;4.78;3.05;;;;;;;;;;7387953;19;20010;-78
2022/01/22 08:12:10;;;;;;;4.68;3.10;;;;;;;;;;7388533;19;20006;-77
2022/01/22 08:14:36;;;;;;;7.40;3.35;;;;;;;;;;7392031;19;20029;-78
2022/01/22 08:17:01;;;;;;;5.88;3.40;;;;;;;;;;7390597;19;20026;-77
2022/01/22 08:19:26;;;;;;;5.05;3.03;;;;;;;;;;7391886;19;20011;-79
2022/01/22 08:21:51;;;;;;;6.35;3.00;;;;;;;;;;7391020;19;20012;-79
2022/01/22 08:24:19;;;;;;;5.70;4.05;;;;;;;;;;7388133;19;20066;-79
2022/01/22 08:26:53;;;;;;;5.97;3.20;;;;;;;;;;7385994;19;20018;-79
2022/01/22 08:29:18;;;;;;;5.53;3.40;;;;;;;;;;7388382;19;20002;-79
2022/01/22 08:36:55;;;;;;;5.15;3.47;;;;;;;;;;7389433;19;20765;-79
2022/01/22 08:39:21;;;;;;;4.63;3.17;;;;;;;;;;7389867;19;20007;-80
2022/01/22 08:41:46;;;;;;;4.97;3.03;;;;;;;;;;7386640;19;20021;-80
2022/01/22 08:44:12;;;;;;;5.03;3.42;;;;;;;;;;7388303;19;20438;-80
2022/01/22 08:46:39;;;;;;;5.78;3.50;;;;;;;;;;7389321;19;20379;-80
2022/01/22 08:49:06;;;;;;;7.18;3.80;;;;;;;;;;7389910;19;20023;-80
2022/01/22 08:51:33;;;;;;;7.22;3.83;;;;;;;;;;7392126;19;20010;-81
2022/01/22 08:54:01;;;;;;;6.85;3.83;;;;;;;;;;7390383;19;20091;-81
2022/01/22 08:56:29;;;;;;;6.95;3.42;;;;;;;;;;7390197;19;20106;-78
2022/01/22 08:58:55;;;;;;;7.18;3.83;;;;;;;;;;7393575;19;20031;-80
2022/01/22 09:01:22;;;;;;;7.13;4.07;;;;;;;;;;7388295;19;20449;-80
2022/01/22 09:03:49;;;;;;;8.15;4.07;;;;;;;;;;7389143;19;20011;-83
2022/01/22 09:06:15;;;;;;;5.90;3.80;;;;;;;;;;7392736;19;20007;-82
2022/01/22 09:08:41;;;;;;;8.68;4.55;;;;;;;;;;7391424;19;20029;-82
2022/01/22 09:11:07;;;;;;;7.10;4.18;;;;;;;;;;7392127;19;20007;-81
2022/01/22 09:13:32;;;;;;;5.53;3.47;;;;;;;;;;7387360;19;20035;-81
2022/01/22 09:15:58;;;;;;;5.28;3.50;;;;;;;;;;7390623;19;20500;-82
2022/01/22 09:18:23;;;;;;;6.55;3.58;;;;;;;;;;7388861;19;20929;-82
2022/01/22 09:23:15;;;;;;;5.97;3.90;;;;;;;;;;7398358;19;21212;-83
2022/01/22 09:25:41;;;;;;;6.72;3.30;;;;;;;;;;7399031;19;20014;-82
2022/01/22 09:28:12;;;;;;;6.18;3.80;;;;;;;;;;7394200;19;20758;-82
2022/01/22 09:30:38;;;;;;;7.32;3.70;;;;;;;;;;7359477;19;20122;-81
2022/01/22 09:33:03;;;;;;;5.15;2.60;;;;;;;;;;7398266;19;20010;-82
2022/01/22 09:35:29;;;;;;;4.78;3.00;;;;;;;;;;7399902;19;20033;-83
2022/01/22 09:37:54;;;;;;;5.20;3.20;;;;;;;;;;7395416;19;20013;-81
2022/01/22 09:40:21;;;;;;;5.10;3.40;;;;;;;;;;7396308;19;20021;-80
2022/01/22 09:42:46;;;;;;;4.75;3.40;;;;;;;;;;7394962;19;20344;-83
2022/01/22 09:45:13;;;;;;;8.05;3.38;;;;;;;;;;7394360;19;20010;-81
2022/01/22 09:47:44;;;;;;;3.63;2.95;;;;;;;;;;7397102;19;20032;-81
2022/01/22 09:50:09;;;;;;;5.05;3.28;;;;;;;;;;7401365;19;20034;-80
2022/01/22 09:52:35;;;;;;;7.07;4.10;;;;;;;;;;7396243;19;20002;-80
2022/01/22 09:55:01;;;;;;;7.20;3.20;;;;;;;;;;7396153;19;20014;-80
2022/01/22 09:57:26;;;;;;;4.90;3.25;;;;;;;;;;7392737;19;20021;-81
2022/01/22 09:59:51;;;;;;;6.00;3.63;;;;;;;;;;7394904;19;20022;-81
2022/01/22 10:02:20;;;;;;;6.25;3.40;;;;;;;;;;7393738;19;20582;-81
2022/01/22 10:04:48;;;;;;;6.20;3.55;;;;;;;;;;7396706;19;20076;-81
2022/01/22 10:07:20;;;;;;;6.70;4.13;;;;;;;;;;7399361;19;20014;-82
2022/01/22 10:10:04;;;;;;;8.48;3.90;;;;;;;;;;7403314;19;20007;-82
2022/01/22 10:12:30;;;;;;;5.63;3.13;;;;;;;;;;7401129;19;20496;-82
2022/01/22 10:15:15;;;;;;;6.63;3.30;;;;;;;;;;7397883;19;20608;-81
2022/01/22 10:17:46;;;;;;;4.43;3.05;;;;;;;;;;7395638;19;20074;-81
2022/01/22 10:20:20;;;;;;;4.60;3.22;;;;;;;;;;7395006;19;20363;-82
2022/01/22 10:22:47;;;;;;;5.50;3.35;;;;;;;;;;7394862;19;20102;-82
2022/01/22 10:25:26;;;;;;;5.43;3.40;;;;;;;;;;7394848;19;20909;-83
2022/01/22 10:27:59;;;;;;;4.55;3.42;;;;;;;;;;7392085;19;20023;-83
2022/01/22 10:30:34;;;;;;;6.65;3.58;;;;;;;;;;7393004;19;20026;-83
2022/01/22 10:33:09;;;;;;;;;;;;;;;;;;7391071;19;20039;-83
2022/01/22 10:35:35;;;;;;;5.43;3.23;;;;;;;;;;7392026;19;19939;-83
2022/01/22 10:38:02;;;;;;;4.85;2.95;;;;;;;;;;7391001;19;20035;-82
2022/01/22 10:40:33;;;;;;;8.45;3.60;;;;;;;;;;7391315;19;20018;-81
2022/01/22 10:43:32;;;;;;;6.47;3.67;;;;;;;;;;7390418;19;20428;-83
2022/01/22 10:46:14;;;;;;;5.13;3.30;;;;;;;;;;7392535;19;20481;-81
2022/01/22 10:53:12;;;;;;;5.28;3.42;;;;;;;;;;7389085;19;20039;-83
2022/01/22 10:56:00;;;;;;;5.45;3.50;;;;;;;;;;7386434;19;20010;-83
2022/01/22 10:58:25;;;;;;;6.90;3.65;;;;;;;;;;7390890;19;20011;-84
2022/01/22 11:01:05;;;;;;;5.88;3.58;;;;;;;;;;7394604;19;20461;-82
2022/01/22 11:03:30;;;;;;;6.13;3.65;;;;;;;;;;7391948;19;20018;-83
2022/01/22 11:05:57;;;;;;;6.32;3.53;;;;;;;;;;7390919;19;20026;-83
2022/01/22 11:08:23;;;;;;;5.20;3.47;;;;;;;;;;7390776;19;20026;-82
2022/01/22 11:10:49;;;;;;;4.70;2.92;;;;;;;;;;7392504;19;20048;-82
2022/01/22 11:13:15;;;;;;;4.38;3.10;;;;;;;;;;7387814;19;20027;-82
2022/01/22 11:15:55;;;;;;;5.28;3.38;;;;;;;;;;7388777;19;20002;-84
2022/01/22 11:18:23;;;;;;;6.50;3.60;;;;;;;;;;7389145;19;20017;-85
2022/01/22 11:20:51;;;;;;;4.72;3.05;;;;;;;;;;7390629;19;20007;-84
2022/01/22 11:23:54;;;;;;;6.45;3.40;;;;;;;;;;7388910;19;20156;-84
2022/01/22 11:26:20;;;;;;;6.07;3.47;;;;;;;;;;7388961;19;20031;-83
2022/01/22 11:28:51;;;;;;;6.43;3.25;;;;;;;;;;7390948;19;20569;-84
2022/01/22 11:31:47;;;;;;;5.05;3.40;;;;;;;;;;7391479;19;20028;-85
2022/01/22 11:34:36;;;;;;;5.25;3.33;;;;;;;;;;7388673;19;20014;-85
2022/01/22 11:44:05;;;;;;;5.28;3.00;;;;;;;;;;7388163;19;19989;-83
2022/01/22 11:46:41;;;;;;;4.45;3.00;;;;;;;;;;7391103;19;20098;-85
2022/01/22 11:49:19;;;;;;;6.30;3.80;;;;;;;;;;7388274;19;20419;-83
2022/01/22 11:52:34;;;;;;;5.60;2.95;;;;;;;;;;7390704;19;20018;-83
2022/01/22 11:55:16;;;;;;;5.55;3.55;;;;;;;;;;7385804;19;20398;-83
2022/01/22 11:57:44;;;;;;;5.20;3.20;;;;;;;;;;7388230;19;20051;-84
2022/01/22 12:00:29;;;;;;;5.43;3.40;;;;;;;;;;7389242;19;20028;-83
2022/01/22 12:03:07;;;;;;;5.93;3.50;;;;;;;;;;7387500;19;20035;-82
2022/01/22 12:05:32;;;;;;;5.03;3.70;;;;;;;;;;7390001;19;20002;-85
2022/01/22 12:08:01;;;;;;;5.93;3.60;;;;;;;;;;7387507;19;20062;-86
2022/01/22 12:10:37;;;;;;;4.85;3.40;;;;;;;;;;7388294;19;20011;-85
2022/01/22 12:16:06;;;;;;;4.93;3.17;;;;;;;;;;7388553;19;20027;-87
2022/01/22 12:18:42;;;;;;;5.93;3.80;;;;;;;;;;7376774;19;20049;-87
2022/01/22 12:21:32;;;;;;;6.70;3.63;;;;;;;;;;7381087;19;20017;-87
2022/01/22 12:23:58;;;;;;;4.97;3.00;;;;;;;;;;7382145;19;20448;-89
2022/01/22 12:26:42;;;;;;;5.97;3.20;;;;;;;;;;7381433;19;20017;-87
2022/01/22 12:29:35;;;;;;;5.95;3.58;;;;;;;;;;7383374;19;20046;-86
2022/01/22 12:32:18;;;;;;;4.95;2.90;;;;;;;;;;7387719;19;20006;-88
2022/01/22 12:34:57;;;;;;;4.78;3.70;;;;;;;;;;7386143;19;20011;-90
2022/01/22 12:37:24;;;;;;;5.18;2.88;;;;;;;;;;7387789;19;20014;-88
2022/01/22 12:39:53;;;;;;;8.40;3.15;;;;;;;;;;7389603;19;20007;-86
2022/01/22 12:42:28;;;;;;;6.15;3.85;;;;;;;;;;7384693;19;20146;-87
2022/01/22 12:45:13;;;;;;;5.68;3.40;;;;;;;;;;7381653;19;20030;-86
2022/01/22 12:47:45;;;;;;;6.15;3.95;;;;;;;;;;7385652;19;20015;-84
2022/01/22 12:50:11;;;;;;;6.80;3.50;;;;;;;;;;7386367;19;20010;-82
2022/01/22 12:52:37;;;;;;;7.85;4.03;;;;;;;;;;7389832;19;20011;-86
2022/01/22 13:16:02;;;;;;;6.10;4.28;;;;;;;;;;7392615;19;19989;-92
2022/01/22 13:19:06;;;;;;;8.15;4.20;;;;;;;;;;7386525;19;20124;-89
2022/01/22 13:21:32;;;;;;;5.65;3.42;;;;;;;;;;7381418;19;19999;-90
2022/01/22 13:24:10;;;;;;;8.35;4.47;;;;;;;;;;7386133;19;20013;-88
2022/01/22 13:26:38;;;;;;;8.13;4.50;;;;;;;;;;7387697;19;20014;-90
2022/01/22 13:29:39;;;;;;;7.80;4.13;;;;;;;;;;7412891;19;20115;-92
2022/01/22 13:50:10;;;;;;;8.20;4.15;;;;;;;;;;7388556;19;20013;-91
2022/01/22 13:52:36;;;;;;;5.40;3.80;;;;;;;;;;7385617;19;20003;-89
2022/01/22 13:55:01;;;;;;;5.63;3.70;;;;;;;;;;7385840;19;20022;-90
2022/01/22 13:57:33;;;;;;;6.45;3.63;;;;;;;;;;7385063;19;20007;-89
2022/01/22 13:59:58;;;;;;;6.30;4.00;;;;;;;;;;7385941;19;20007;-91
2022/01/22 14:02:52;;;;;;;8.45;4.78;;;;;;;;;;7389195;19;20319;-91
2022/01/22 14:05:17;;;;;;;8.20;3.95;;;;;;;;;;7385161;19;20452;-91
2022/01/22 14:07:47;;;;;;;8.32;4.70;;;;;;;;;;7388852;19;20082;-91
2022/01/22 14:10:17;;;;;;;7.13;4.05;;;;;;;;;;7389913;19;20003;-91
2022/01/22 14:12:45;;;;;;;8.20;4.07;;;;;;;;;;7390758;19;20095;-91
2022/01/22 14:15:29;;;;;;;6.72;3.70;;;;;;;;;;7389825;19;20010;-88
2022/01/22 14:21:05;;;;;;;4.20;3.08;;;;;;;;;;7393847;19;20328;-92
2022/01/22 14:23:33;;;;;;;6.68;3.72;;;;;;;;;;7388047;19;20010;-90
2022/01/22 14:26:03;;;;;;;6.07;3.83;;;;;;;;;;7387201;19;20045;-89
2022/01/22 14:28:40;;;;;;;6.40;3.58;;;;;;;;;;7389888;19;19999;-87
2022/01/22 14:31:29;;;;;;;7.50;4.63;;;;;;;;;;7392515;19;20026;-85
2022/01/22 14:34:06;;;;;;;8.57;4.40;;;;;;;;;;7390861;19;20025;-89
2022/01/22 14:36:47;;;;;;;6.20;3.45;;;;;;;;;;7389728;19;20359;-87
2022/01/22 14:39:18;;;;;;;6.80;3.88;;;;;;;;;;7388819;19;20017;-89
2022/01/22 14:44:49;;;;;;;8.98;3.65;;;;;;;;;;7396133;19;20025;-85
2022/01/22 14:47:17;;;;;;;6.05;4.10;;;;;;;;;;7391995;19;20480;-89
2022/01/22 14:49:45;;;;;;;6.43;4.00;;;;;;;;;;7389606;19;20383;-88
2022/01/22 14:52:12;;;;;;;9.98;3.95;;;;;;;;;;7390649;19;20461;-87
2022/01/22 14:54:40;;;;;;;9.07;4.07;;;;;;;;;;7392170;19;20014;-87
2022/01/22 14:57:07;;;;;;;6.38;3.42;;;;;;;;;;7389318;19;20010;-86
2022/01/22 14:59:37;;;;;;;6.88;3.97;;;;;;;;;;7393549;19;20006;-87
2022/01/22 15:02:03;;;;;;;4.57;3.42;;;;;;;;;;7393550;19;20024;-86
2022/01/22 15:04:29;;;;;;;6.65;3.65;;;;;;;;;;7361808;19;20015;-86
2022/01/22 15:06:57;;;;;;;9.13;4.13;;;;;;;;;;7393494;19;20490;-84
2022/01/22 15:09:23;;;;;;;8.80;4.57;;;;;;;;;;7388184;19;20041;-84
2022/01/22 15:11:49;;;;;;;8.02;4.57;;;;;;;;;;7382742;19;20010;-85
2022/01/22 15:14:14;;;;;;;9.52;4.97;;;;;;;;;;7386279;19;20043;-85
2022/01/22 15:17:03;;;;;;;5.90;4.25;;;;;;;;;;7387947;19;20010;-83
2022/01/22 15:19:28;;;;;;;8.07;4.85;;;;;;;;;;7383644;19;20011;-82
2022/01/22 15:21:54;;;;;;;8.32;4.70;;;;;;;;;;7387341;19;20018;-83
2022/01/22 15:24:19;;;;;;;10.32;4.65;;;;;;;;;;7391636;19;21335;-83
2022/01/22 15:26:46;;;;;;;6.68;4.50;;;;;;;;;;7387346;19;20433;-81
2022/01/22 15:29:15;;;;;;;11.85;4.35;;;;;;;;;;7383193;19;20436;-82
2022/01/22 15:31:52;;;;;;;9.82;5.72;;;;;;;;;;7379492;19;20358;-82
2022/01/22 15:34:37;;;;;;;8.18;5.20;;;;;;;;;;7376374;19;20010;-82
2022/01/22 15:37:06;;;;;;;9.40;4.68;;;;;;;;;;7382116;19;20070;-83
2022/01/22 15:39:33;;;;;;;8.20;5.45;;;;;;;;;;7384803;19;20010;-84
2022/01/22 15:42:00;;;;;;;8.48;5.28;;;;;;;;;;7385817;19;20405;-86
2022/01/22 15:44:25;;;;;;;7.57;4.60;;;;;;;;;;7379215;19;20010;-84
2022/01/22 15:46:51;;;;;;;7.40;5.22;;;;;;;;;;7380491;19;20017;-83
2022/01/22 15:49:22;;;;;;;6.57;3.88;;;;;;;;;;7380202;19;20010;-84
2022/01/22 15:51:58;;;;;;;6.60;4.03;;;;;;;;;;7383366;19;20014;-85
2022/01/22 15:54:23;;;;;;;10.60;4.70;;;;;;;;;;7376962;19;20065;-85
2022/01/22 15:56:52;;;;;;;7.10;4.05;;;;;;;;;;7378040;19;20691;-83
2022/01/22 15:59:19;;;;;;;7.75;4.20;;;;;;;;;;7380400;19;20543;-86
2022/01/22 16:01:45;;;;;;;6.57;4.53;;;;;;;;;;7388526;19;20182;-87
2022/01/22 16:04:11;;;;;;;7.18;4.57;;;;;;;;;;7386462;19;20094;-86
2022/01/22 16:06:47;;;;;;;9.48;5.22;;;;;;;;;;7383224;19;20007;-85
2022/01/22 16:09:17;;;;;;;6.85;4.60;;;;;;;;;;7381783;19;20067;-81
2022/01/22 16:11:43;;;;;;;6.15;4.22;;;;;;;;;;7389129;19;20074;-86
2022/01/22 16:14:09;;;;;;;8.75;5.03;;;;;;;;;;7385961;19;20009;-86
2022/01/22 16:16:38;;;;;;;6.43;4.38;;;;;;;;;;7387027;19;20402;-86
2022/01/22 16:19:04;;;;;;;8.05;5.03;;;;;;;;;;7388599;19;20097;-86
2022/01/22 16:21:31;;;;;;;7.63;4.40;;;;;;;;;;7388455;19;20106;-85
2022/01/22 16:23:57;;;;;;;5.70;4.07;;;;;;;;;;7387884;19;20011;-86
2022/01/22 16:26:22;;;;;;;6.57;4.07;;;;;;;;;;7385313;19;20006;-84
2022/01/22 16:28:48;;;;;;;9.27;4.30;;;;;;;;;;7386210;19;20013;-84
2022/01/22 16:31:13;;;;;;;8.52;4.57;;;;;;;;;;7382819;19;20090;-83
2022/01/22 16:33:39;;;;;;;7.07;4.50;;;;;;;;;;7385718;19;20002;-85
2022/01/22 16:36:04;;;;;;;8.63;4.35;;;;;;;;;;7388159;19;20023;-83
2022/01/22 16:38:29;;;;;;;6.85;4.70;;;;;;;;;;7384009;19;20492;-85
2022/01/22 16:40:55;;;;;;;7.00;4.60;;;;;;;;;;7385829;19;20008;-85
2022/01/22 16:43:28;;;;;;;8.80;4.72;;;;;;;;;;7383787;19;20468;-82
2022/01/22 16:46:24;;;;;;;7.45;4.90;;;;;;;;;;7383565;19;20014;-85
2022/01/22 16:51:57;;;;;;;8.40;4.25;;;;;;;;;;7387887;19;20041;-82
2022/01/22 16:57:10;;;;;;;7.43;4.43;;;;;;;;;;7388566;19;20017;-84
2022/01/22 16:59:39;;;;;;;6.55;4.10;;;;;;;;;;7388181;19;20009;-84
2022/01/22 17:02:05;;;;;;;6.40;4.07;;;;;;;;;;7387095;19;20015;-82
2022/01/22 17:04:39;;;;;;;5.30;3.55;;;;;;;;;;7385556;19;20051;-82
2022/01/22 17:07:06;;;;;;;9.17;5.10;;;;;;;;;;7388554;19;20086;-80
2022/01/22 17:14:43;;;;;;;7.13;4.70;;;;;;;;;;7390449;19;20019;-81
2022/01/22 17:17:09;;;;;;;7.53;4.85;;;;;;;;;;7387683;19;20038;-82
2022/01/22 17:19:34;;;;;;;7.28;4.93;;;;;;;;;;7388082;19;20010;-81
2022/01/22 17:22:00;;;;;;;7.13;4.70;;;;;;;;;;7389794;19;20061;-80
2022/01/22 17:24:27;;;;;;;8.10;4.82;;;;;;;;;;7387935;19;20006;-81
2022/01/22 17:26:52;;;;;;;5.75;4.25;;;;;;;;;;7388774;19;20018;-79
2022/01/22 17:29:18;;;;;;;12.55;5.25;;;;;;;;;;7389417;19;20006;-80
2022/01/22 17:31:44;;;;;;;9.05;4.75;;;;;;;;;;7389018;19;20073;-80
2022/01/22 17:34:09;;;;;;;9.85;4.65;;;;;;;;;;7387944;19;20444;-80
2022/01/22 17:36:38;;;;;;;9.63;4.90;;;;;;;;;;7387540;19;20054;-80